createdAt,value
2019-03-23T00:00:11.030Z,88.00
2019-03-23T00:02:47.483Z,87.00
2019-03-23T00:05:21.152Z,86.80
2019-03-23T00:07:54.866Z,85.20
2019-03-23T00:10:28.403Z,86.20
2019-03-23T00:13:03.252Z,85.60
2019-03-23T00:15:36.953Z,86.00
2019-03-23T00:18:10.347Z,86.30
2019-03-23T00:20:44.066Z,86.00
2019-03-23T00:23:18.539Z,86.20
2019-03-23T00:25:51.957Z,86.40
2019-03-23T00:28:27.020Z,86.20
2019-03-23T00:31:00.553Z,86.40
2019-03-23T00:33:34.266Z,86.20
2019-03-23T00:36:07.814Z,86.20
2019-03-23T00:38:41.884Z,86.50
2019-03-23T00:41:15.250Z,86.40
2019-03-23T00:43:49.285Z,86.20
2019-03-23T00:46:23.096Z,86.60
2019-03-23T00:48:56.826Z,86.70
2019-03-23T00:51:30.345Z,86.60
2019-03-23T00:54:03.976Z,86.90
2019-03-23T00:56:37.543Z,87.70
2019-03-23T00:59:12.526Z,88.30
2019-03-23T01:01:46.497Z,85.90
2019-03-23T01:04:19.984Z,86.20
2019-03-23T01:06:53.610Z,86.30
2019-03-23T01:09:27.250Z,86.90
2019-03-23T01:12:00.803Z,87.00
2019-03-23T01:14:34.587Z,86.30
2019-03-23T01:17:08.298Z,86.00
2019-03-23T01:19:41.788Z,87.40
2019-03-23T01:22:15.245Z,87.10
2019-03-23T01:24:49.519Z,87.20
2019-03-23T01:27:23.439Z,86.60
2019-03-23T01:29:57.049Z,86.50
2019-03-23T01:32:31.388Z,86.60
2019-03-23T01:35:05.280Z,85.20
2019-03-23T01:37:38.845Z,85.70
2019-03-23T01:40:12.879Z,86.40
2019-03-23T01:42:46.661Z,86.50
2019-03-23T01:45:20.500Z,86.20
2019-03-23T01:47:54.641Z,86.50
2019-03-23T01:50:29.459Z,86.40
2019-03-23T01:53:03.608Z,85.90
2019-03-23T01:55:37.355Z,85.40
2019-03-23T01:58:11.532Z,85.10
2019-03-23T02:00:45.088Z,85.70
2019-03-23T02:03:19.140Z,85.40
2019-03-23T02:05:53.420Z,85.40
2019-03-23T02:08:28.297Z,85.90
2019-03-23T02:11:03.956Z,85.60
2019-03-23T02:13:38.252Z,86.10
2019-03-23T02:16:12.830Z,85.30
2019-03-23T02:18:46.981Z,85.40
2019-03-23T02:21:21.443Z,87.00
2019-03-23T02:23:55.604Z,86.60
2019-03-23T02:26:30.553Z,85.80
2019-03-23T02:29:04.652Z,84.50
2019-03-23T02:31:39.240Z,85.90
2019-03-23T02:34:13.753Z,84.80
2019-03-23T02:36:47.639Z,84.00
2019-03-23T02:39:21.859Z,85.60
2019-03-23T02:41:57.119Z,85.10
2019-03-23T02:44:29.582Z,85.40
2019-03-23T02:47:03.692Z,85.60
2019-03-23T02:49:38.011Z,85.90
2019-03-23T02:52:12.514Z,84.40
2019-03-23T02:54:47.825Z,84.30
2019-03-23T02:57:20.459Z,84.10
2019-03-23T02:59:54.521Z,85.00
2019-03-23T03:02:29.429Z,84.60
2019-03-23T03:05:04.467Z,86.00
2019-03-23T03:07:42.253Z,85.80
2019-03-23T03:10:16.278Z,84.70
2019-03-23T03:12:51.012Z,86.40
2019-03-23T03:15:24.806Z,85.10
2019-03-23T03:17:59.316Z,85.70
2019-03-23T03:20:33.525Z,85.80
2019-03-23T03:23:08.996Z,85.70
2019-03-23T03:25:43.053Z,85.60
2019-03-23T03:28:17.988Z,86.50
2019-03-23T03:30:52.191Z,86.30
2019-03-23T03:33:25.914Z,86.20
2019-03-23T03:36:01.915Z,85.70
2019-03-23T03:38:35.982Z,86.50
2019-03-23T03:41:10.159Z,85.80
2019-03-23T03:43:44.339Z,87.80
2019-03-23T03:46:18.125Z,86.50
2019-03-23T03:48:52.479Z,85.80
2019-03-23T03:51:26.629Z,86.20
2019-03-23T03:54:00.513Z,85.80
2019-03-23T03:56:35.431Z,85.90
2019-03-23T03:59:11.303Z,85.10
2019-03-23T04:01:44.850Z,85.30
2019-03-23T04:04:19.101Z,85.70
2019-03-23T04:06:53.243Z,86.10
2019-03-23T04:09:26.834Z,86.30
2019-03-23T04:12:01.877Z,86.40
2019-03-23T04:14:36.003Z,85.60
2019-03-23T04:17:10.831Z,86.20
2019-03-23T04:19:44.514Z,85.30
2019-03-23T04:22:18.038Z,86.00
2019-03-23T04:24:53.943Z,86.70
2019-03-23T04:27:27.882Z,87.20
2019-03-23T04:30:01.947Z,86.10
2019-03-23T04:32:36.310Z,84.80
2019-03-23T04:35:10.986Z,85.80
2019-03-23T04:37:45.158Z,85.20
2019-03-23T04:40:19.903Z,85.50
2019-03-23T04:42:55.285Z,85.70
2019-03-23T04:45:29.842Z,85.20
2019-03-23T04:48:05.092Z,85.00
2019-03-23T04:50:40.876Z,86.20
2019-03-23T04:53:15.223Z,85.70
2019-03-23T04:55:49.453Z,85.70
2019-03-23T04:58:24.546Z,86.10
2019-03-23T05:00:59.962Z,86.80
2019-03-23T05:03:39.480Z,87.00
2019-03-23T05:06:15.944Z,86.70
2019-03-23T05:08:50.049Z,87.00
2019-03-23T05:11:24.650Z,87.60
2019-03-23T05:13:59.289Z,88.10
2019-03-23T05:16:36.436Z,87.10
2019-03-23T05:19:11.222Z,87.50
2019-03-23T05:21:45.703Z,88.10
2019-03-23T05:24:23.240Z,87.90
2019-03-23T05:26:58.221Z,87.90
2019-03-23T05:29:32.495Z,87.70
2019-03-23T05:32:08.996Z,88.00
2019-03-23T05:34:45.007Z,87.10
2019-03-23T05:37:23.034Z,87.20
2019-03-23T05:39:58.468Z,87.90
2019-03-23T05:42:32.877Z,87.20
2019-03-23T05:45:08.494Z,87.70
2019-03-23T05:47:43.514Z,87.90
2019-03-23T05:50:18.033Z,87.70
2019-03-23T05:52:52.369Z,87.70
2019-03-23T05:55:27.000Z,87.00
2019-03-23T05:58:03.646Z,87.30
2019-03-23T06:00:38.216Z,87.00
2019-03-23T06:03:12.557Z,87.40
2019-03-23T06:08:55.047Z,88.40
2019-03-23T06:11:22.905Z,87.00
2019-03-23T06:13:57.380Z,87.50
2019-03-23T06:16:31.694Z,87.50
2019-03-23T06:19:05.751Z,87.70
2019-03-23T06:21:42.641Z,87.70
2019-03-23T06:24:16.813Z,87.60
2019-03-23T06:26:51.862Z,87.30
2019-03-23T06:29:25.227Z,87.50
2019-03-23T06:31:59.575Z,87.00
2019-03-23T06:34:35.048Z,86.70
2019-03-23T06:37:09.857Z,86.70
2019-03-23T06:39:46.381Z,86.70
2019-03-23T06:42:30.750Z,87.20
2019-03-23T06:45:09.923Z,87.50
2019-03-23T06:47:46.036Z,87.20
2019-03-23T06:50:22.933Z,86.60
2019-03-23T06:52:57.560Z,86.40
2019-03-23T06:55:32.611Z,86.30
2019-03-23T06:58:27.262Z,86.10
2019-03-23T07:01:01.608Z,86.90
2019-03-23T07:03:39.234Z,86.50
2019-03-23T07:06:16.289Z,86.30
2019-03-23T07:08:49.484Z,85.90
2019-03-23T07:11:23.652Z,86.10
2019-03-23T07:13:58.231Z,85.80
2019-03-23T07:16:34.381Z,85.70
2019-03-23T07:19:08.215Z,86.40
2019-03-23T07:21:42.879Z,86.10
2019-03-23T07:24:19.106Z,86.10
2019-03-23T07:26:54.761Z,85.30
2019-03-23T07:29:30.375Z,85.40
2019-03-23T07:32:07.318Z,85.90
2019-03-23T07:34:41.726Z,86.60
2019-03-23T07:37:16.087Z,85.90
2019-03-23T07:39:52.683Z,85.80
2019-03-23T07:42:27.219Z,87.20
2019-03-23T07:45:02.935Z,86.90
2019-03-23T07:47:38.328Z,86.80
2019-03-23T07:50:16.860Z,86.60
2019-03-23T07:52:53.506Z,86.00
2019-03-23T07:55:28.062Z,86.00
2019-03-23T07:58:03.422Z,86.10
2019-03-23T08:00:36.344Z,88.00
2019-03-23T08:03:11.640Z,87.40
2019-03-23T08:05:46.201Z,86.20
2019-03-23T08:08:21.873Z,85.90
2019-03-23T08:10:57.593Z,85.80
2019-03-23T08:13:31.946Z,86.20
2019-03-23T08:16:06.487Z,86.30
2019-03-23T08:18:42.776Z,86.50
2019-03-23T08:21:17.145Z,85.60
2019-03-23T08:23:52.912Z,85.50
2019-03-23T08:26:27.599Z,85.50
2019-03-23T08:29:03.274Z,85.50
2019-03-23T08:31:37.549Z,85.40
2019-03-23T08:34:13.183Z,85.90
2019-03-23T08:36:47.718Z,85.20
2019-03-23T08:39:25.553Z,85.10
2019-03-23T08:42:03.282Z,85.80
2019-03-23T08:44:39.830Z,86.70
2019-03-23T08:47:17.032Z,85.10
2019-03-23T08:49:53.124Z,85.90
2019-03-23T08:52:28.907Z,85.60
2019-03-23T08:55:02.420Z,86.80
2019-03-23T08:57:37.118Z,86.30
2019-03-23T09:00:13.100Z,85.00
2019-03-23T09:02:54.426Z,85.50
2019-03-23T09:05:28.656Z,84.90
2019-03-23T09:08:02.502Z,86.20
2019-03-23T09:10:39.147Z,85.90
2019-03-23T09:13:14.329Z,85.60
2019-03-23T09:15:59.478Z,85.40
2019-03-23T09:18:34.004Z,85.50
2019-03-23T09:21:08.936Z,86.20
2019-03-23T09:23:43.665Z,84.70
2019-03-23T09:26:17.977Z,85.40
2019-03-23T09:28:52.789Z,85.40
2019-03-23T09:31:28.051Z,86.50
2019-03-23T09:34:03.979Z,85.90
2019-03-23T09:36:38.506Z,85.90
2019-03-23T09:39:13.265Z,85.80
2019-03-23T09:41:47.892Z,86.40
2019-03-23T09:44:23.839Z,86.30
2019-03-23T09:46:58.272Z,87.10
2019-03-23T09:49:34.508Z,86.40
2019-03-23T09:52:10.409Z,86.00
2019-03-23T09:54:46.106Z,85.10
2019-03-23T09:57:20.237Z,86.70
2019-03-23T09:59:55.006Z,85.70
2019-03-23T10:02:30.902Z,85.20
2019-03-23T10:05:05.029Z,85.40
2019-03-23T10:07:43.654Z,85.80
2019-03-23T10:10:22.044Z,85.50
2019-03-23T10:12:52.113Z,84.90
2019-03-23T10:15:27.478Z,84.90
2019-03-23T10:18:02.137Z,85.00
2019-03-23T10:20:36.719Z,85.40
2019-03-23T10:23:13.228Z,85.40
2019-03-23T10:25:47.772Z,85.00
2019-03-23T10:28:22.097Z,86.10
2019-03-23T10:30:56.684Z,86.00
2019-03-23T10:33:31.993Z,85.80
2019-03-23T10:36:06.747Z,85.00
2019-03-23T10:38:42.262Z,85.10
2019-03-23T10:41:17.113Z,85.10
2019-03-23T10:43:51.877Z,85.60
2019-03-23T10:46:26.209Z,85.30
2019-03-23T10:49:00.939Z,84.80
2019-03-23T10:51:36.600Z,85.40
2019-03-23T10:54:12.171Z,84.80
2019-03-23T10:56:48.615Z,85.40
2019-03-23T10:59:23.530Z,85.40
2019-03-23T11:02:02.287Z,85.70
2019-03-23T11:04:38.203Z,85.90
2019-03-23T11:07:15.260Z,85.70
2019-03-23T11:09:48.984Z,85.80
2019-03-23T11:12:23.079Z,85.40
2019-03-23T11:14:59.991Z,85.90
2019-03-23T11:17:34.318Z,86.50
2019-03-23T11:20:10.390Z,86.20
2019-03-23T11:22:44.850Z,86.40
2019-03-23T11:25:20.179Z,86.10
2019-03-23T11:27:54.557Z,86.20
2019-03-23T11:30:28.937Z,85.90
2019-03-23T11:33:04.355Z,86.20
2019-03-23T11:35:38.936Z,86.10
2019-03-23T11:38:19.305Z,86.00
2019-03-23T11:40:56.071Z,86.10
2019-03-23T11:43:33.352Z,85.90
2019-03-23T11:46:09.205Z,86.00
2019-03-23T11:48:45.074Z,86.40
2019-03-23T11:51:22.381Z,86.30
2019-03-23T11:53:57.495Z,86.60
2019-03-23T11:56:32.285Z,86.50
2019-03-23T11:59:07.628Z,86.40
2019-03-23T12:01:51.469Z,86.10
2019-03-23T12:04:21.261Z,86.30
2019-03-23T12:06:55.561Z,86.40
2019-03-23T12:09:32.590Z,86.70
2019-03-23T12:12:07.903Z,86.40
2019-03-23T12:14:42.686Z,86.60
2019-03-23T12:17:18.609Z,87.00
2019-03-23T12:19:53.431Z,86.20
2019-03-23T12:22:28.757Z,86.10
2019-03-23T12:25:04.166Z,86.30
2019-03-23T12:27:40.074Z,86.40
2019-03-23T12:30:17.046Z,86.30
2019-03-23T12:32:51.633Z,86.30
2019-03-23T12:35:27.587Z,86.70
2019-03-23T12:38:03.051Z,86.60
2019-03-23T12:40:40.971Z,86.50
2019-03-23T12:43:19.056Z,86.60
2019-03-23T12:45:54.831Z,86.70
2019-03-23T12:48:30.458Z,86.70
2019-03-23T12:51:04.987Z,86.60
2019-03-23T12:53:39.574Z,86.70
2019-03-23T12:56:15.351Z,86.50
2019-03-23T12:58:52.676Z,86.30
2019-03-23T13:01:27.046Z,86.60
2019-03-23T13:04:04.025Z,86.70
2019-03-23T13:06:39.451Z,86.70
2019-03-23T13:09:12.405Z,86.70
2019-03-23T13:11:46.880Z,86.80
2019-03-23T13:14:20.990Z,86.70
2019-03-23T13:16:55.302Z,86.40
2019-03-23T13:19:32.455Z,86.80
2019-03-23T13:22:08.105Z,86.60
2019-03-23T13:24:44.034Z,86.90
2019-03-23T13:27:19.976Z,86.70
2019-03-23T13:30:03.697Z,86.90
2019-03-23T13:32:38.413Z,86.60
2019-03-23T13:35:14.468Z,86.50
2019-03-23T13:37:50.018Z,87.00
2019-03-23T13:40:29.081Z,86.80
2019-03-23T13:43:07.819Z,86.50
2019-03-23T13:45:43.028Z,86.30
2019-03-23T13:48:24.449Z,86.40
2019-03-23T13:51:00.701Z,86.50
2019-03-23T13:53:37.775Z,86.90
2019-03-23T13:56:13.414Z,86.70
2019-03-23T13:58:49.726Z,86.30
2019-03-23T14:01:27.641Z,86.40
2019-03-23T14:04:05.959Z,87.10
2019-03-23T14:06:43.430Z,86.40
2019-03-23T14:09:25.424Z,86.10
2019-03-23T14:12:01.368Z,85.70
2019-03-23T14:14:35.521Z,86.00
2019-03-23T14:17:14.551Z,85.90
2019-03-23T14:19:51.144Z,86.00
2019-03-23T14:22:28.017Z,86.40
2019-03-23T14:25:15.448Z,86.40
2019-03-23T14:28:02.689Z,87.00
2019-03-23T14:30:43.375Z,86.80
2019-03-23T14:33:22.384Z,87.00
2019-03-23T14:36:03.445Z,86.50
2019-03-23T14:38:41.618Z,86.60
2019-03-23T14:41:17.091Z,87.80
2019-03-23T14:43:51.707Z,87.60
2019-03-23T14:46:27.040Z,86.40
2019-03-23T14:49:06.259Z,86.20
2019-03-23T14:51:47.190Z,85.90
2019-03-23T14:54:22.487Z,86.40
2019-03-23T14:56:57.629Z,86.70
2019-03-23T14:59:35.419Z,85.80
2019-03-23T15:02:18.355Z,86.60
2019-03-23T15:04:52.065Z,86.20
2019-03-23T15:07:32.425Z,86.20
2019-03-23T15:10:11.343Z,86.40
2019-03-23T15:12:52.451Z,86.30
2019-03-23T15:15:33.003Z,85.50
2019-03-23T15:18:12.256Z,85.10
2019-03-23T15:20:49.848Z,85.20
2019-03-23T15:23:29.580Z,85.50
2019-03-23T15:26:05.304Z,85.80
2019-03-23T15:28:42.868Z,85.80
2019-03-23T15:31:25.921Z,85.30
2019-03-23T15:34:03.105Z,85.50
2019-03-23T15:36:49.506Z,86.00
2019-03-23T15:39:25.625Z,86.30
2019-03-23T15:45:06.187Z,86.20
2019-03-23T15:50:41.263Z,87.20
2019-03-23T15:53:18.302Z,87.70
2019-03-23T15:55:56.042Z,87.10
2019-03-23T15:58:32.451Z,86.20
2019-03-23T16:01:12.170Z,86.70
2019-03-23T16:03:47.251Z,86.70
2019-03-23T16:06:21.914Z,86.00
2019-03-23T16:08:59.314Z,85.50
2019-03-23T16:12:03.139Z,86.30
2019-03-23T16:14:40.479Z,85.70
2019-03-23T16:17:16.408Z,85.80
2019-03-23T16:19:58.185Z,85.60
2019-03-23T16:22:40.595Z,86.80
2019-03-23T16:25:15.702Z,85.60
2019-03-23T16:27:54.789Z,86.70
2019-03-23T16:30:36.964Z,85.70
2019-03-23T16:33:18.136Z,85.90
2019-03-23T16:35:57.354Z,85.60
2019-03-23T16:38:32.712Z,85.90
2019-03-23T16:41:06.824Z,86.40
2019-03-23T16:43:41.152Z,85.60
2019-03-23T16:46:21.616Z,86.00
2019-03-23T16:49:00.385Z,86.00
2019-03-23T16:51:37.934Z,85.60
2019-03-23T16:54:13.724Z,86.60
2019-03-23T16:56:50.319Z,86.90
2019-03-23T16:59:31.926Z,86.00
2019-03-23T17:02:07.574Z,86.30
2019-03-23T17:04:48.131Z,87.00
2019-03-23T17:07:28.978Z,86.80
2019-03-23T17:10:05.076Z,86.90
2019-03-23T17:12:40.360Z,86.30
2019-03-23T17:15:14.903Z,86.40
2019-03-23T17:17:50.877Z,87.80
2019-03-23T17:20:25.344Z,88.60
2019-03-23T17:23:03.250Z,86.90
2019-03-23T17:25:38.311Z,88.00
2019-03-23T17:28:13.262Z,86.70
2019-03-23T17:30:47.487Z,86.00
2019-03-23T17:33:23.391Z,86.80
2019-03-23T17:35:59.041Z,86.60
2019-03-23T17:38:39.108Z,86.90
2019-03-23T17:41:14.376Z,87.90
2019-03-23T17:44:09.363Z,87.90
2019-03-23T17:46:45.788Z,86.80
2019-03-23T17:49:18.683Z,86.60
2019-03-23T17:51:55.821Z,86.90
2019-03-23T17:54:30.944Z,88.10
2019-03-23T17:57:06.519Z,89.50
2019-03-23T17:59:41.324Z,89.30
2019-03-23T18:02:16.893Z,86.40
2019-03-23T18:04:51.257Z,87.00
2019-03-23T18:07:25.753Z,86.80
2019-03-23T18:10:00.683Z,86.90
2019-03-23T18:12:35.108Z,88.20
2019-03-23T18:15:10.689Z,87.20
2019-03-23T18:17:47.066Z,85.80
2019-03-23T18:20:22.595Z,86.00
2019-03-23T18:22:57.055Z,86.20
2019-03-23T18:25:31.290Z,85.80
2019-03-23T18:28:05.500Z,86.60
2019-03-23T18:30:42.096Z,86.20
2019-03-23T18:33:16.621Z,86.70
2019-03-23T18:35:50.773Z,87.80
2019-03-23T18:38:25.966Z,87.30
2019-03-23T18:41:00.688Z,87.60
2019-03-23T18:43:34.619Z,87.10
2019-03-23T18:46:08.885Z,87.50
2019-03-23T18:48:43.388Z,87.50
2019-03-23T18:51:18.564Z,86.80
2019-03-23T18:53:52.941Z,88.00
2019-03-23T18:56:26.898Z,88.40
2019-03-23T18:59:01.921Z,87.70
2019-03-23T19:01:35.364Z,87.00
2019-03-23T19:04:08.781Z,87.10
2019-03-23T19:06:44.329Z,87.10
2019-03-23T19:09:19.078Z,88.70
2019-03-23T19:11:54.546Z,87.50
2019-03-23T19:14:28.408Z,87.70
2019-03-23T19:17:02.079Z,87.60
2019-03-23T19:19:36.191Z,87.20
2019-03-23T19:22:10.316Z,87.00
2019-03-23T19:24:43.810Z,87.50
2019-03-23T19:27:17.375Z,87.10
2019-03-23T19:29:51.127Z,87.40
2019-03-23T19:32:24.703Z,87.10
2019-03-23T19:35:00.293Z,86.60
2019-03-23T19:37:34.514Z,86.50
2019-03-23T19:40:09.407Z,86.70
2019-03-23T19:42:47.299Z,86.50
2019-03-23T19:45:21.008Z,86.70
2019-03-23T19:47:55.308Z,86.70
2019-03-23T19:50:28.911Z,86.40
2019-03-23T19:53:02.970Z,86.40
2019-03-23T19:55:36.850Z,85.80
2019-03-23T19:58:11.584Z,86.80
2019-03-23T20:00:46.307Z,86.90
2019-03-23T20:03:21.161Z,86.60
2019-03-23T20:05:56.656Z,87.80
2019-03-23T20:08:30.496Z,87.90
2019-03-23T20:11:04.663Z,87.70
2019-03-23T20:13:38.618Z,87.80
2019-03-23T20:16:12.479Z,87.90
2019-03-23T20:18:46.643Z,88.20
2019-03-23T20:21:20.222Z,88.20
2019-03-23T20:23:53.998Z,88.60
2019-03-23T20:26:27.518Z,87.90
2019-03-23T20:29:01.625Z,87.90
2019-03-23T20:31:36.705Z,88.20
2019-03-23T20:34:10.372Z,89.10
2019-03-23T20:36:44.911Z,89.10
2019-03-23T20:39:20.025Z,89.00
2019-03-23T20:41:53.617Z,89.30
2019-03-23T20:44:27.231Z,90.20
2019-03-23T20:47:00.816Z,88.80
2019-03-23T20:49:35.409Z,87.20
2019-03-23T20:52:09.870Z,87.50
2019-03-23T20:54:43.378Z,88.10
2019-03-23T20:57:23.759Z,87.30
2019-03-23T20:59:51.706Z,87.30
2019-03-23T21:02:25.201Z,88.50
2019-03-23T21:04:58.872Z,88.10
2019-03-23T21:07:32.708Z,87.50
2019-03-23T21:10:06.808Z,87.30
2019-03-23T21:12:40.573Z,87.20
2019-03-23T21:15:14.215Z,87.10
2019-03-23T21:17:51.432Z,87.50
2019-03-23T21:20:22.822Z,87.00
2019-03-23T21:22:56.680Z,87.20
2019-03-23T21:25:30.127Z,87.30
2019-03-23T21:28:03.624Z,87.90
2019-03-23T21:30:37.044Z,88.30
2019-03-23T21:33:10.441Z,89.00
2019-03-23T21:35:44.142Z,87.50
2019-03-23T21:38:17.465Z,87.50
2019-03-23T21:40:51.670Z,89.00
2019-03-23T21:43:25.439Z,89.10
2019-03-23T21:45:59.313Z,88.00
2019-03-23T21:48:32.757Z,88.10
2019-03-23T21:51:06.339Z,88.20
2019-03-23T21:53:40.443Z,87.80
2019-03-23T21:56:14.185Z,88.00
2019-03-23T21:58:47.511Z,88.30
2019-03-23T22:01:20.993Z,88.00
2019-03-23T22:03:54.925Z,88.20
2019-03-23T22:06:28.407Z,88.60
2019-03-23T22:09:12.883Z,88.50
2019-03-23T22:11:46.333Z,88.40
2019-03-23T22:14:19.860Z,89.00
2019-03-23T22:16:53.283Z,87.80
2019-03-23T22:19:26.835Z,88.10
2019-03-23T22:22:01.825Z,88.30
2019-03-23T22:24:35.520Z,88.60
2019-03-23T22:27:10.044Z,89.90
2019-03-23T22:29:43.651Z,90.10
2019-03-23T22:32:17.186Z,89.20
2019-03-23T22:34:50.806Z,87.80
2019-03-23T22:37:24.392Z,88.10
2019-03-23T22:39:58.203Z,87.90
2019-03-23T22:42:31.693Z,87.80
2019-03-23T22:45:06.003Z,87.60
2019-03-23T22:47:40.022Z,87.90
2019-03-23T22:50:13.841Z,88.20
2019-03-23T22:52:48.749Z,88.50
2019-03-23T22:55:22.547Z,89.10
2019-03-23T22:57:56.070Z,87.80
2019-03-23T23:00:43.967Z,87.80
2019-03-23T23:03:19.173Z,87.80
2019-03-23T23:05:52.799Z,87.90
2019-03-23T23:08:26.583Z,87.60
2019-03-23T23:11:00.380Z,88.50
2019-03-23T23:13:44.745Z,88.50
2019-03-23T23:16:19.941Z,88.10
2019-03-23T23:18:52.396Z,88.10
2019-03-23T23:21:25.716Z,89.10
2019-03-23T23:24:00.129Z,88.20
2019-03-23T23:26:33.537Z,87.90
2019-03-23T23:29:06.802Z,88.20
2019-03-23T23:31:40.310Z,88.30
2019-03-23T23:34:13.699Z,88.50
2019-03-23T23:36:47.235Z,88.20
2019-03-23T23:39:21.057Z,88.70
2019-03-23T23:41:54.597Z,88.10
2019-03-23T23:44:28.114Z,88.50
2019-03-23T23:47:02.402Z,88.40
2019-03-23T23:49:36.211Z,88.00
2019-03-23T23:52:12.050Z,88.50
2019-03-23T23:54:45.812Z,88.20
2019-03-23T23:57:19.274Z,89.40
2019-03-23T23:59:52.896Z,88.70
